createdAt,value
2023-11-21T00:01:50.614Z,5.57
2023-11-21T00:04:53.499Z,3.40
2023-11-21T00:07:55.843Z,2.22
2023-11-21T00:10:58.301Z,2.58
2023-11-21T00:14:00.779Z,3.13
2023-11-21T00:17:02.805Z,3.70
2023-11-21T00:20:07.804Z,3.20
2023-11-21T00:23:11.209Z,2.28
2023-11-21T00:26:13.640Z,3.53
2023-11-21T00:29:18.533Z,3.95
2023-11-21T00:32:20.871Z,2.90
2023-11-21T00:35:22.836Z,5.90
2023-11-21T00:38:25.507Z,2.33
2023-11-21T00:41:28.802Z,4.93
2023-11-21T00:44:31.047Z,4.90
2023-11-21T00:47:35.657Z,2.30
2023-11-21T00:50:38.011Z,3.03
2023-11-21T00:53:40.565Z,4.50
2023-11-21T00:56:42.907Z,1.73
2023-11-21T00:59:44.896Z,2.92
2023-11-21T01:02:47.957Z,4.38
2023-11-21T01:05:51.369Z,4.13
2023-11-21T01:08:53.743Z,5.45
2023-11-21T01:11:55.667Z,3.25
2023-11-21T01:15:01.335Z,8.70
2023-11-21T01:18:04.868Z,3.95
2023-11-21T01:21:08.721Z,3.90
2023-11-21T01:24:10.688Z,2.60
2023-11-21T01:27:13.067Z,5.07
2023-11-21T01:30:15.663Z,3.45
2023-11-21T01:33:18.033Z,5.28
2023-11-21T01:36:20.072Z,2.80
2023-11-21T01:39:25.058Z,2.90
2023-11-21T01:42:28.206Z,3.92
2023-11-21T01:45:34.483Z,4.20
2023-11-21T01:48:36.792Z,7.75
2023-11-21T01:51:39.243Z,3.90
2023-11-21T01:54:42.101Z,3.53
2023-11-21T01:57:47.854Z,6.35
2023-11-21T02:00:52.113Z,4.22
2023-11-21T02:03:54.532Z,2.72
2023-11-21T02:06:57.297Z,4.40
2023-11-21T02:10:00.234Z,4.45
2023-11-21T02:13:04.289Z,3.47
2023-11-21T02:19:13.724Z,4.47
2023-11-21T02:22:18.013Z,4.82
2023-11-21T02:25:20.101Z,3.88
2023-11-21T02:28:27.198Z,3.30
2023-11-21T02:31:29.554Z,3.78
2023-11-21T02:34:31.918Z,5.63
2023-11-21T02:37:33.910Z,3.75
2023-11-21T02:40:36.230Z,4.50
2023-11-21T02:43:39.893Z,4.38
2023-11-21T02:46:42.490Z,4.43
2023-11-21T02:49:44.565Z,3.38
2023-11-21T02:52:47.215Z,3.55
2023-11-21T02:55:49.969Z,4.03
2023-11-21T02:58:52.369Z,2.90
2023-11-21T03:01:54.478Z,2.33
2023-11-21T03:04:56.801Z,2.17
2023-11-21T03:07:58.867Z,3.85
2023-11-21T03:11:06.001Z,3.92
2023-11-21T03:14:08.101Z,10.55
2023-11-21T03:17:10.387Z,2.40
2023-11-21T03:20:12.890Z,3.45
2023-11-21T03:23:16.322Z,2.85
2023-11-21T03:26:18.323Z,3.42
2023-11-21T03:29:20.738Z,2.33
2023-11-21T03:32:22.826Z,3.13
2023-11-21T03:35:25.814Z,2.65
2023-11-21T03:38:27.996Z,4.25
2023-11-21T03:41:30.394Z,3.65
2023-11-21T03:44:32.393Z,2.92
2023-11-21T03:47:34.656Z,4.72
2023-11-21T03:50:36.885Z,3.78
2023-11-21T03:53:39.241Z,4.93
2023-11-21T03:56:43.617Z,4.47
2023-11-21T03:59:45.917Z,3.08
2023-11-21T04:02:48.003Z,2.95
2023-11-21T04:05:50.414Z,2.78
2023-11-21T04:08:52.384Z,6.53
2023-11-21T04:11:54.892Z,2.60
2023-11-21T04:14:56.826Z,3.97
2023-11-21T04:17:59.712Z,2.95
2023-11-21T04:21:01.772Z,2.17
2023-11-21T04:24:04.317Z,2.47
2023-11-21T04:27:06.386Z,4.05
2023-11-21T04:30:09.043Z,3.05
2023-11-21T04:33:11.068Z,1.95
2023-11-21T04:36:13.362Z,4.40
2023-11-21T04:39:15.326Z,5.05
2023-11-21T04:42:17.644Z,3.22
2023-11-21T04:45:19.673Z,6.07
2023-11-21T04:48:22.119Z,8.18
2023-11-21T04:51:24.113Z,4.07
2023-11-21T04:54:28.618Z,7.13
2023-11-21T04:57:31.001Z,5.50
2023-11-21T05:00:33.548Z,10.55
2023-11-21T05:03:36.311Z,5.75
2023-11-21T05:06:38.703Z,6.55
2023-11-21T05:09:45.251Z,7.82
2023-11-21T05:12:47.754Z,6.05
2023-11-21T05:15:50.842Z,7.38
2023-11-21T05:18:53.073Z,5.65
2023-11-21T05:21:55.084Z,10.48
2023-11-21T05:24:57.594Z,5.45
2023-11-21T05:28:02.431Z,8.07
2023-11-21T05:31:10.900Z,4.07
2023-11-21T05:34:18.971Z,8.82
2023-11-21T05:37:21.442Z,10.52
2023-11-21T05:40:23.943Z,10.45
2023-11-21T05:43:26.322Z,10.05
2023-11-21T05:46:28.335Z,10.68
2023-11-21T05:49:31.260Z,16.75
2023-11-21T05:52:33.941Z,9.32
2023-11-21T05:55:36.259Z,13.25
2023-11-21T05:58:38.313Z,10.63
2023-11-21T06:01:40.640Z,15.00
2023-11-21T06:04:42.728Z,8.77
2023-11-21T06:07:45.580Z,11.82
2023-11-21T06:10:50.427Z,9.07
2023-11-21T06:13:54.554Z,13.35
2023-11-21T06:16:57.797Z,13.10
2023-11-21T06:20:00.423Z,11.30
2023-11-21T06:23:04.917Z,11.00
2023-11-21T06:26:07.328Z,10.93
2023-11-21T06:29:09.327Z,9.52
2023-11-21T06:32:11.842Z,13.30
2023-11-21T06:35:14.540Z,11.75
2023-11-21T06:38:16.958Z,11.40
2023-11-21T06:41:19.142Z,8.35
2023-11-21T06:44:21.404Z,6.80
2023-11-21T06:47:23.445Z,8.55
2023-11-21T06:50:25.814Z,10.68
2023-11-21T06:53:27.810Z,10.40
2023-11-21T06:56:30.109Z,8.95
2023-11-21T06:59:32.213Z,15.32
2023-11-21T07:02:37.110Z,13.65
2023-11-21T07:05:40.348Z,13.90
2023-11-21T07:08:43.815Z,9.98
2023-11-21T07:11:45.851Z,15.05
2023-11-21T07:14:48.140Z,7.60
2023-11-21T07:17:50.288Z,6.45
2023-11-21T07:20:53.220Z,11.93
2023-11-21T07:23:55.199Z,12.00
2023-11-21T07:26:57.878Z,9.40
2023-11-21T07:29:59.996Z,11.63
2023-11-21T07:33:02.571Z,6.68
2023-11-21T07:36:04.868Z,8.38
2023-11-21T07:39:07.885Z,7.75
2023-11-21T07:42:10.339Z,8.23
2023-11-21T07:45:12.804Z,7.68
2023-11-21T07:48:15.017Z,9.25
2023-11-21T07:51:17.901Z,10.15
2023-11-21T07:54:19.980Z,9.73
2023-11-21T07:57:22.369Z,13.90
2023-11-21T08:00:31.414Z,13.00
2023-11-21T08:03:34.036Z,9.07
2023-11-21T08:06:36.505Z,14.18
2023-11-21T08:09:39.004Z,10.57
2023-11-21T08:12:41.119Z,13.60
2023-11-21T08:15:47.986Z,12.20
2023-11-21T08:18:50.144Z,9.43
2023-11-21T08:21:57.192Z,9.43
2023-11-21T08:24:59.572Z,12.90
2023-11-21T08:28:02.843Z,8.73
2023-11-21T08:31:05.778Z,15.45
2023-11-21T08:34:08.298Z,15.25
2023-11-21T08:37:10.389Z,15.45
2023-11-21T08:40:18.125Z,12.85
2023-11-21T08:43:21.239Z,14.10
2023-11-21T08:46:24.267Z,9.13
2023-11-21T08:49:28.841Z,9.63
2023-11-21T08:52:31.462Z,13.40
2023-11-21T08:55:38.784Z,9.50
2023-11-21T08:58:42.996Z,7.85
2023-11-21T09:01:45.272Z,10.35
2023-11-21T09:04:48.646Z,11.40
2023-11-21T09:07:50.865Z,12.63
2023-11-21T09:10:53.157Z,13.32
2023-11-21T09:13:55.446Z,7.53
2023-11-21T09:16:57.880Z,5.53
2023-11-21T09:19:59.987Z,7.93
2023-11-21T09:23:02.524Z,6.38
2023-11-21T09:26:06.515Z,9.93
2023-11-21T09:29:09.764Z,9.20
2023-11-21T09:32:15.390Z,7.82
2023-11-21T09:35:18.811Z,9.50
2023-11-21T09:38:21.107Z,7.97
2023-11-21T09:41:41.865Z,7.32
2023-11-21T09:45:00.574Z,6.45
2023-11-21T09:48:03.843Z,8.57
2023-11-21T09:51:07.300Z,8.63
2023-11-21T09:54:12.369Z,9.95
2023-11-21T09:57:15.369Z,12.93
2023-11-21T10:00:19.413Z,9.05
2023-11-21T10:03:22.399Z,11.87
2023-11-21T10:06:27.894Z,10.05
2023-11-21T10:09:31.931Z,8.45
2023-11-21T10:12:34.811Z,11.18
2023-11-21T10:15:37.129Z,13.20
2023-11-21T10:18:41.679Z,14.63
2023-11-21T10:21:43.862Z,13.70
2023-11-21T10:24:52.395Z,11.57
2023-11-21T10:28:06.317Z,15.15
2023-11-21T10:31:08.971Z,19.60
2023-11-21T10:34:19.557Z,17.00
2023-11-21T10:37:21.860Z,14.93
2023-11-21T10:40:23.977Z,10.38
2023-11-21T10:43:28.078Z,9.95
2023-11-21T10:46:31.853Z,16.48
2023-11-21T10:49:34.242Z,18.88
2023-11-21T10:52:37.492Z,16.15
2023-11-21T10:55:45.588Z,12.45
2023-11-21T10:58:55.469Z,13.18
2023-11-21T11:01:59.622Z,13.02
2023-11-21T11:05:03.196Z,8.80
2023-11-21T11:08:09.226Z,9.32
2023-11-21T11:11:11.594Z,9.60
2023-11-21T11:14:17.339Z,8.98
2023-11-21T11:17:23.895Z,10.02
2023-11-21T11:20:38.487Z,6.10
2023-11-21T11:23:51.552Z,9.97
2023-11-21T11:27:17.213Z,6.72
2023-11-21T11:30:47.933Z,7.55
2023-11-21T11:34:02.043Z,6.28
2023-11-21T11:37:07.533Z,7.10
2023-11-21T11:40:13.331Z,12.70
2023-11-21T11:43:29.093Z,6.13
2023-11-21T11:46:48.728Z,7.97
2023-11-21T11:49:59.356Z,6.88
2023-11-21T11:53:15.646Z,8.38
2023-11-21T11:56:24.009Z,7.43
2023-11-21T11:59:27.152Z,6.65
2023-11-21T12:02:29.576Z,8.32
2023-11-21T12:05:42.788Z,7.45
2023-11-21T12:08:46.578Z,7.93
2023-11-21T12:11:50.054Z,6.63
2023-11-21T12:14:52.309Z,6.13
2023-11-21T12:17:54.622Z,7.43
2023-11-21T12:20:56.844Z,6.97
2023-11-21T12:23:59.740Z,7.63
2023-11-21T12:27:01.729Z,7.88
2023-11-21T12:30:04.311Z,8.18
2023-11-21T12:33:08.211Z,5.10
2023-11-21T12:36:12.456Z,6.90
2023-11-21T12:39:15.783Z,7.32
2023-11-21T12:42:18.831Z,8.98
2023-11-21T12:45:29.027Z,10.25
2023-11-21T12:48:33.152Z,13.73
2023-11-21T12:51:35.202Z,8.60
2023-11-21T12:54:37.502Z,7.72
2023-11-21T12:57:44.280Z,8.00
2023-11-21T13:00:48.771Z,18.05
2023-11-21T13:03:52.514Z,11.45
2023-11-21T13:06:56.796Z,11.90
2023-11-21T13:09:58.922Z,5.87
2023-11-21T13:13:02.358Z,7.70
2023-11-21T13:16:09.380Z,8.90
2023-11-21T13:19:12.800Z,6.68
2023-11-21T13:22:14.772Z,6.80
2023-11-21T13:25:23.180Z,6.93
2023-11-21T13:28:28.004Z,5.63
2023-11-21T13:31:34.008Z,6.13
2023-11-21T13:34:37.900Z,7.53
2023-11-21T13:37:44.996Z,6.05
2023-11-21T13:40:54.652Z,5.57
2023-11-21T13:44:10.510Z,4.85
2023-11-21T13:47:12.638Z,5.90
2023-11-21T13:50:20.329Z,5.97
2023-11-21T13:53:31.856Z,5.03
2023-11-21T13:56:34.442Z,8.60
2023-11-21T13:59:37.959Z,5.30
2023-11-21T14:02:44.037Z,6.00
2023-11-21T14:05:49.102Z,4.28
2023-11-21T14:08:52.605Z,5.32
2023-11-21T14:11:58.052Z,5.35
2023-11-21T14:15:01.158Z,4.28
2023-11-21T14:18:07.507Z,5.50
2023-11-21T14:21:11.804Z,8.32
2023-11-21T14:24:13.968Z,9.63
2023-11-21T14:27:16.540Z,7.95
2023-11-21T14:30:20.950Z,7.00
2023-11-21T14:33:24.067Z,7.28
2023-11-21T14:36:27.052Z,7.75
2023-11-21T14:39:29.464Z,6.38
2023-11-21T14:42:31.447Z,6.15
2023-11-21T14:45:35.060Z,8.88
2023-11-21T14:48:43.812Z,8.55
2023-11-21T14:52:01.616Z,5.68
2023-11-21T14:55:22.833Z,5.85
2023-11-21T14:58:28.041Z,5.93
2023-11-21T15:02:02.280Z,13.05
2023-11-21T15:05:06.734Z,7.25
2023-11-21T15:08:22.966Z,6.03
2023-11-21T15:11:32.051Z,6.55
2023-11-21T15:14:37.986Z,8.25
2023-11-21T15:17:44.484Z,7.25
2023-11-21T15:20:46.604Z,10.40
2023-11-21T15:23:49.267Z,7.43
2023-11-21T15:26:51.783Z,6.47
2023-11-21T15:29:54.845Z,5.20
2023-11-21T15:32:57.371Z,5.47
2023-11-21T15:36:00.162Z,5.07
2023-11-21T15:39:02.409Z,4.78
2023-11-21T15:42:06.270Z,5.45
2023-11-21T15:45:09.660Z,4.82
2023-11-21T15:48:13.246Z,5.25
2023-11-21T15:51:15.390Z,5.03
2023-11-21T15:54:17.742Z,5.13
2023-11-21T15:57:23.103Z,3.00
2023-11-21T16:00:25.695Z,8.35
2023-11-21T16:03:29.765Z,6.68
2023-11-21T16:06:32.244Z,6.40
2023-11-21T16:09:37.576Z,8.35
2023-11-21T16:12:41.525Z,4.20
2023-11-21T16:15:43.942Z,5.65
2023-11-21T16:18:46.623Z,5.13
2023-11-21T16:21:49.215Z,4.78
2023-11-21T16:24:51.530Z,3.85
2023-11-21T16:27:53.546Z,3.95
2023-11-21T16:30:55.848Z,5.78
2023-11-21T16:34:01.004Z,3.97
2023-11-21T16:37:04.898Z,2.95
2023-11-21T16:40:10.224Z,3.00
2023-11-21T16:43:12.696Z,5.05
2023-11-21T16:46:15.212Z,3.70
2023-11-21T16:49:17.980Z,3.42
2023-11-21T16:52:23.755Z,3.17
2023-11-21T16:55:26.259Z,5.55
2023-11-21T16:58:28.235Z,5.60
2023-11-21T17:01:31.007Z,5.20
2023-11-21T17:04:33.572Z,6.78
2023-11-21T17:07:35.802Z,4.97
2023-11-21T17:10:38.314Z,6.93
2023-11-21T17:13:43.499Z,5.78
2023-11-21T17:19:49.358Z,2.67
2023-11-21T17:22:51.372Z,3.70
2023-11-21T17:25:54.045Z,4.80
2023-11-21T17:28:56.853Z,5.03
2023-11-21T17:31:59.305Z,2.63
2023-11-21T17:35:01.814Z,3.88
2023-11-21T17:38:04.181Z,2.25
2023-11-21T17:41:06.251Z,3.05
2023-11-21T17:44:08.969Z,3.45
2023-11-21T17:47:12.095Z,4.97
2023-11-21T17:50:15.260Z,4.60
2023-11-21T17:53:17.727Z,4.97
2023-11-21T17:56:20.722Z,4.82
2023-11-21T17:59:23.674Z,11.23
2023-11-21T18:02:26.685Z,6.40
2023-11-21T18:05:28.759Z,7.85
2023-11-21T18:08:31.095Z,10.02
2023-11-21T18:11:33.103Z,8.38
2023-11-21T18:14:37.148Z,9.98
2023-11-21T18:17:43.575Z,21.38
2023-11-21T18:20:53.788Z,10.85
2023-11-21T18:23:56.134Z,9.73
2023-11-21T18:26:58.459Z,10.02
2023-11-21T18:30:03.712Z,11.40
2023-11-21T18:33:06.146Z,9.23
2023-11-21T18:36:08.972Z,12.57
2023-11-21T18:39:15.695Z,8.60
2023-11-21T18:42:18.648Z,7.75
2023-11-21T18:45:20.961Z,8.57
2023-11-21T18:48:23.347Z,7.43
2023-11-21T18:51:25.818Z,9.15
2023-11-21T18:54:27.980Z,6.53
2023-11-21T18:57:32.665Z,9.20
2023-11-21T19:00:34.867Z,13.25
2023-11-21T19:03:37.220Z,7.05
2023-11-21T19:06:39.334Z,7.10
2023-11-21T19:09:41.917Z,10.00
2023-11-21T19:12:52.470Z,8.88
2023-11-21T19:15:54.749Z,6.07
2023-11-21T19:18:59.963Z,8.55
2023-11-21T19:22:02.318Z,7.97
2023-11-21T19:25:07.666Z,9.00
2023-11-21T19:28:09.913Z,7.45
2023-11-21T19:31:19.863Z,6.82
2023-11-21T19:34:22.251Z,8.30
2023-11-21T19:37:24.423Z,7.18
2023-11-21T19:40:26.768Z,7.28
2023-11-21T19:43:32.381Z,7.85
2023-11-21T19:46:34.823Z,7.03
2023-11-21T19:49:36.817Z,7.75
2023-11-21T19:52:39.208Z,5.97
2023-11-21T19:55:41.187Z,10.10
2023-11-21T19:58:43.406Z,14.55
2023-11-21T20:01:45.466Z,6.82
2023-11-21T20:04:47.843Z,6.32
2023-11-21T20:07:49.788Z,9.27
2023-11-21T20:10:52.171Z,7.53
2023-11-21T20:13:54.990Z,9.50
2023-11-21T20:16:59.896Z,7.35
2023-11-21T20:23:05.972Z,6.57
2023-11-21T20:26:08.028Z,6.10
2023-11-21T20:29:10.626Z,7.57
2023-11-21T20:32:12.921Z,6.72
2023-11-21T20:35:37.432Z,17.25
2023-11-21T20:38:39.702Z,7.03
2023-11-21T20:41:42.563Z,6.53
2023-11-21T20:44:44.587Z,6.10
2023-11-21T20:47:47.037Z,7.82
2023-11-21T20:50:49.157Z,9.32
2023-11-21T20:53:51.409Z,7.78
2023-11-21T20:56:53.664Z,6.93
2023-11-21T20:59:56.026Z,6.75
2023-11-21T21:02:58.306Z,11.88
2023-11-21T21:06:01.146Z,8.20
2023-11-21T21:09:03.197Z,5.68
2023-11-21T21:12:06.209Z,6.85
2023-11-21T21:15:11.247Z,6.35
2023-11-21T21:18:13.566Z,5.68
2023-11-21T21:21:15.610Z,5.90
2023-11-21T21:24:17.955Z,8.20
2023-11-21T21:27:19.960Z,5.82
2023-11-21T21:30:22.752Z,13.68
2023-11-21T21:33:24.755Z,10.57
2023-11-21T21:36:27.286Z,4.43
2023-11-21T21:39:29.363Z,6.22
2023-11-21T21:42:31.639Z,4.80
2023-11-21T21:45:33.754Z,5.75
2023-11-21T21:48:42.104Z,7.10
2023-11-21T21:51:45.017Z,5.57
2023-11-21T21:54:47.824Z,6.38
2023-11-21T21:57:49.904Z,5.90
2023-11-21T22:00:52.172Z,6.35
2023-11-21T22:03:54.409Z,4.85
2023-11-21T22:06:56.832Z,4.80
2023-11-21T22:09:58.794Z,6.10
2023-11-21T22:13:01.185Z,4.72
2023-11-21T22:16:03.235Z,6.35
2023-11-21T22:19:07.215Z,4.40
2023-11-21T22:22:09.486Z,6.90
2023-11-21T22:25:12.519Z,4.75
2023-11-21T22:28:14.449Z,8.60
2023-11-21T22:31:16.666Z,5.95
2023-11-21T22:34:19.398Z,6.38
2023-11-21T22:37:22.057Z,4.63
2023-11-21T22:40:24.012Z,5.93
2023-11-21T22:43:26.278Z,5.45
2023-11-21T22:46:30.558Z,4.88
2023-11-21T22:49:33.256Z,4.30
2023-11-21T22:52:35.200Z,6.65
2023-11-21T22:55:37.463Z,5.63
2023-11-21T22:58:40.629Z,5.78
2023-11-21T23:01:42.973Z,8.05
2023-11-21T23:04:45.194Z,7.13
2023-11-21T23:07:47.723Z,13.93
2023-11-21T23:10:54.313Z,6.88
2023-11-21T23:13:56.641Z,9.38
2023-11-21T23:16:59.452Z,5.88
2023-11-21T23:20:07.079Z,7.88
2023-11-21T23:23:09.066Z,7.70
2023-11-21T23:26:16.164Z,6.88
2023-11-21T23:29:18.284Z,7.10
2023-11-21T23:32:22.343Z,7.35
2023-11-21T23:35:25.059Z,9.20
2023-11-21T23:38:27.519Z,7.72
2023-11-21T23:41:29.470Z,8.43
2023-11-21T23:44:31.943Z,4.40
2023-11-21T23:47:34.032Z,10.35
2023-11-21T23:50:36.428Z,4.50
2023-11-21T23:53:38.382Z,7.00
2023-11-21T23:56:40.809Z,6.03
2023-11-21T23:59:42.774Z,5.40
